Alvarado, Texas
Current Conditions -  °F | °C
As of 1:50 PM on Monday 26 Jan 2015 (Local Time) from KFWS Reporting Station
Clear Clear  
Wind Chill: 70°   Ceiling: Unl
Heat Index: 70°   Visibility: 20mi
Dew Point: 37°   Wind: 7mph
Humidity: 31%   Direction: 250°WSW
Pressure: 30.15"   Gusts: NA
Location:  32.41°N, 97.21°W
Report Text: KFWS 261950Z 25006KT 20SM CLR 21/03 A3015
Loading
Personal Weather Stations






























Interactive Weather Map New forecast layout! Learn more

10-Day Weather Forecast

Advertisements
Track Severe Weather on mobile